Time;durP1;ratioP1;P1;durP2;ratioP2;P2;SDS_P1;SDS_P2;PMS_P1;PMS_P2;Temp;Humidity;BMP_temperature;BMP_pressure;BME280_temperature;BME280_humidity;BME280_pressure;Samples;Min_cycle;Max_cycle;Signal;HPM_P1;HPM_P2
2022/04/28 00:00:09;;;;;;;8.02;6.15;;;;;;;11.94;97.45;100153.56;5060226;28;20476;-76
2022/04/28 00:02:34;;;;;;;7.88;6.35;;;;;;;11.97;97.71;100155.06;5062894;28;20094;-76
2022/04/28 00:05:01;;;;;;;7.80;6.68;;;;;;;11.94;97.77;100148.25;5061639;28;20033;-76
2022/04/28 00:07:27;;;;;;;7.65;5.95;;;;;;;11.94;98.01;100150.06;5062027;28;20025;-76
2022/04/28 00:09:52;;;;;;;6.53;5.65;;;;;;;11.96;98.08;100151.59;5062113;28;20036;-76
2022/04/28 00:12:18;;;;;;;7.43;6.38;;;;;;;11.89;98.39;100153.97;5060564;28;20036;-76
2022/04/28 00:14:43;;;;;;;7.30;6.28;;;;;;;11.73;99.70;100160.69;5063445;28;20024;-75
2022/04/28 00:17:09;;;;;;;6.90;6.20;;;;;;;11.57;100.00;100157.72;5063018;28;20029;-75
2022/04/28 00:19:35;;;;;;;7.97;6.55;;;;;;;11.40;100.00;100165.34;5062175;28;20044;-76
2022/04/28 00:22:00;;;;;;;7.70;6.45;;;;;;;11.20;100.00;100157.44;5061554;28;20434;-77
2022/04/28 00:24:26;;;;;;;7.38;6.60;;;;;;;11.13;100.00;100158.97;5061444;28;20029;-76
2022/04/28 00:26:51;;;;;;;7.28;5.95;;;;;;;11.07;100.00;100155.84;5062295;28;20033;-77
2022/04/28 00:29:17;;;;;;;8.45;6.03;;;;;;;11.09;100.00;100161.00;5060593;28;20112;-76
2022/04/28 00:31:43;;;;;;;7.63;6.82;;;;;;;11.13;100.00;100153.69;5061823;28;20119;-77
2022/04/28 00:34:08;;;;;;;8.32;6.10;;;;;;;11.19;100.00;100161.06;5060026;28;20033;-77
2022/04/28 00:36:34;;;;;;;7.35;6.72;;;;;;;11.27;100.00;100167.34;5061173;28;20037;-77
2022/04/28 00:38:59;;;;;;;8.13;6.00;;;;;;;11.35;100.00;100166.69;5061345;28;20029;-77
2022/04/28 00:41:25;;;;;;;6.80;6.20;;;;;;;11.38;100.00;100171.72;5060423;28;20476;-77
2022/04/28 00:43:52;;;;;;;7.05;6.35;;;;;;;11.38;100.00;100164.63;5062141;28;20386;-77
2022/04/28 00:46:19;;;;;;;8.27;6.95;;;;;;;11.36;100.00;100163.94;5060172;28;20020;-77
2022/04/28 00:51:35;;;;;;;8.07;6.00;;;;;;;11.45;100.00;100172.84;5061895;28;20094;-76
2022/04/28 00:54:02;;;;;;;8.50;6.50;;;;;;;11.50;100.00;100165.34;5059566;28;20093;-76
2022/04/28 00:56:30;;;;;;;6.50;5.78;;;;;;;11.54;100.00;100172.06;5059436;28;20132;-76
2022/04/28 00:58:57;;;;;;;7.95;6.40;;;;;;;11.59;100.00;100169.84;5056919;28;20789;-77
2022/04/28 01:01:22;;;;;;;8.10;5.88;;;;;;;11.61;100.00;100178.47;5056353;28;20028;-76
2022/04/28 01:03:48;;;;;;;9.32;6.65;;;;;;;11.61;100.00;100173.19;5058642;28;20442;-76
2022/04/28 01:06:15;;;;;;;7.22;6.20;;;;;;;11.55;100.00;100175.53;5058196;28;20469;-76
2022/04/28 01:08:41;;;;;;;6.97;6.10;;;;;;;11.52;100.00;100174.00;5062245;28;20136;-75
2022/04/28 01:11:08;;;;;;;7.13;6.50;;;;;;;11.47;100.00;100181.50;5060640;28;20388;-76
2022/04/28 01:13:44;;;;;;;10.75;6.93;;;;;;;11.33;100.00;100181.84;5060850;28;20461;-76
2022/04/28 01:16:13;;;;;;;7.72;6.32;;;;;;;11.24;100.00;100180.84;5061791;28;20086;-75
2022/04/28 01:18:40;;;;;;;6.65;6.05;;;;;;;11.19;100.00;100176.94;5061441;28;20051;-75
2022/04/28 01:21:09;;;;;;;7.68;6.45;;;;;;;11.21;100.00;100182.91;5058270;28;20115;-75
2022/04/28 01:23:36;;;;;;;7.68;6.22;;;;;;;11.25;100.00;100186.97;5060597;28;20755;-76
2022/04/28 01:26:04;;;;;;;8.77;6.47;;;;;;;11.32;100.00;100182.81;5058857;28;20463;-75
2022/04/28 01:28:32;;;;;;;7.72;6.30;;;;;;;11.34;100.00;100191.44;5061193;28;20562;-76
2022/04/28 01:31:05;;;;;;;7.32;6.63;;;;;;;11.37;100.00;100192.00;5058904;28;20037;-76
2022/04/28 01:33:36;;;;;;;6.72;6.18;;;;;;;11.43;100.00;100193.28;5058269;28;20145;-76
2022/04/28 01:36:01;;;;;;;7.13;6.53;;;;;;;11.51;100.00;100193.47;5059178;28;20061;-76
2022/04/28 01:38:27;;;;;;;9.20;6.78;;;;;;;11.48;100.00;100185.81;5059248;28;20558;-76
2022/04/28 01:40:53;;;;;;;8.60;6.32;;;;;;;11.55;100.00;100189.56;5041592;28;20124;-76
2022/04/28 01:43:19;;;;;;;9.20;6.65;;;;;;;11.61;100.00;100196.13;5060042;28;20040;-76
2022/04/28 01:45:44;;;;;;;9.13;7.07;;;;;;;11.65;100.00;100189.63;5056669;28;20037;-75
2022/04/28 01:48:33;;;;;;;7.28;6.57;;;;;;;11.65;100.00;100190.47;5059118;28;20119;-76
2022/04/28 01:56:43;;;;;;;7.40;6.45;;;;;;;11.67;100.00;100188.50;5058249;28;20039;-76
2022/04/28 01:59:27;;;;;;;7.20;6.50;;;;;;;11.68;100.00;100190.19;5059625;28;20048;-75
2022/04/28 02:01:58;;;;;;;7.68;6.97;;;;;;;11.65;100.00;100190.47;5059486;28;20051;-76
2022/04/28 02:04:24;;;;;;;8.02;7.32;;;;;;;11.58;100.00;100191.13;5057734;28;20029;-75
2022/04/28 02:06:52;;;;;;;9.25;6.78;;;;;;;11.52;100.00;100183.72;5059275;28;20038;-76
2022/04/28 02:09:17;;;;;;;7.47;6.78;;;;;;;11.50;100.00;100178.56;5057123;28;20207;-75
2022/04/28 02:11:43;;;;;;;10.45;7.47;;;;;;;11.43;100.00;100175.63;5059989;28;20416;-76
2022/04/28 02:14:19;;;;;;;8.38;7.25;;;;;;;11.37;100.00;100185.88;5056620;28;20048;-76
2022/04/28 02:17:07;;;;;;;9.15;7.55;;;;;;;11.24;100.00;100185.28;5060839;28;20044;-76
2022/04/28 02:19:35;;;;;;;10.13;8.15;;;;;;;11.18;100.00;100191.09;5058833;28;20044;-75
2022/04/28 02:22:04;;;;;;;7.57;6.90;;;;;;;11.17;100.00;100189.41;5056823;28;20029;-76
2022/04/28 02:24:33;;;;;;;7.75;6.75;;;;;;;11.16;100.00;100193.84;5058751;28;20743;-75
2022/04/28 02:26:59;;;;;;;7.70;6.95;;;;;;;11.12;100.00;100188.97;5059245;28;20111;-76
2022/04/28 02:29:24;;;;;;;7.57;6.88;;;;;;;11.08;100.00;100191.88;5058812;28;20056;-76
2022/04/28 02:31:50;;;;;;;7.78;7.07;;;;;;;11.05;100.00;100192.13;5058451;28;20089;-75
2022/04/28 02:34:17;;;;;;;8.38;7.57;;;;;;;10.96;100.00;100198.19;5056049;28;20534;-75
2022/04/28 02:36:48;;;;;;;8.43;7.30;;;;;;;10.92;100.00;100195.94;5059124;28;20108;-74
2022/04/28 02:39:14;;;;;;;8.50;7.72;;;;;;;10.86;100.00;100197.28;5056418;28;20112;-75
2022/04/28 02:41:47;;;;;;;7.78;6.97;;;;;;;10.82;100.00;100201.16;5039892;28;20041;-74
2022/04/28 02:44:13;;;;;;;9.52;8.05;;;;;;;10.77;100.00;100202.53;5056448;28;20267;-75
2022/04/28 02:46:42;;;;;;;10.93;8.07;;;;;;;10.72;100.00;100200.25;5058448;28;20028;-75
2022/04/28 02:49:09;;;;;;;;;;;;;;;10.70;100.00;100194.28;5089797;28;20120;-75
2022/04/28 02:51:36;;;;;;;11.55;8.30;;;;;;;10.75;100.00;100199.16;5058709;28;20368;-75
2022/04/28 02:54:03;;;;;;;10.88;7.80;;;;;;;10.77;100.00;100198.06;5057162;28;20043;-75
2022/04/28 02:56:29;;;;;;;9.65;7.68;;;;;;;10.77;100.00;100192.81;5058008;28;20025;-76
2022/04/28 02:58:55;;;;;;;7.90;7.13;;;;;;;10.79;100.00;100201.41;5075189;28;20032;-76
2022/04/28 03:01:22;;;;;;;9.30;7.38;;;;;;;10.79;100.00;100200.56;5056633;28;20032;-75
2022/04/28 03:03:48;;;;;;;8.98;8.07;;;;;;;10.76;100.00;100201.69;5058873;28;20024;-75
2022/04/28 03:11:44;;;;;;;8.65;7.57;;;;;;;10.63;100.00;100212.41;5055949;28;20392;-76
2022/04/28 03:14:13;;;;;;;8.40;7.40;;;;;;;10.64;100.00;100207.97;5059956;28;20033;-75
2022/04/28 03:16:39;;;;;;;7.93;7.22;;;;;;;10.64;100.00;100213.25;5056035;28;20033;-76
2022/04/28 03:19:07;;;;;;;7.80;7.10;;;;;;;10.68;100.00;100212.88;5059583;28;20045;-75
2022/04/28 03:21:33;;;;;;;8.18;7.32;;;;;;;10.66;100.00;100216.63;5058172;28;20040;-76
2022/04/28 03:24:01;;;;;;;9.23;7.32;;;;;;;10.62;100.00;100220.44;5057104;28;20560;-76
2022/04/28 03:26:29;;;;;;;9.00;6.78;;;;;;;10.60;100.00;100222.41;5057913;28;20452;-78
2022/04/28 03:28:56;;;;;;;10.95;7.25;;;;;;;10.56;100.00;100215.69;5058429;28;20060;-75
2022/04/28 03:31:22;;;;;;;9.07;8.15;;;;;;;10.46;100.00;100226.16;5056985;28;20075;-76
2022/04/28 03:34:19;;;;;;;12.20;7.72;;;;;;;10.29;100.00;100217.94;5044954;28;20476;-75
2022/04/28 03:36:50;;;;;;;8.52;7.38;;;;;;;10.19;100.00;100223.97;5059213;28;20056;-75
2022/04/28 03:39:16;;;;;;;9.05;7.97;;;;;;;10.15;100.00;100230.41;5064172;28;20024;-75
2022/04/28 03:41:43;;;;;;;11.73;8.02;;;;;;;10.08;100.00;100228.38;5060945;28;20061;-75
2022/04/28 03:44:11;;;;;;;8.50;7.68;;;;;;;10.04;100.00;100235.72;5062781;28;20391;-75
2022/04/28 03:46:37;;;;;;;8.43;7.47;;;;;;;10.08;100.00;100234.50;5059935;28;20135;-76
2022/04/28 03:49:04;;;;;;;8.77;8.00;;;;;;;10.11;100.00;100238.69;5061368;28;20244;-75
2022/04/28 03:51:30;;;;;;;8.23;7.50;;;;;;;10.14;100.00;100246.34;5061979;28;20090;-76
2022/04/28 03:54:00;;;;;;;10.77;8.20;;;;;;;10.13;100.00;100250.78;5060377;28;20071;-77
2022/04/28 03:56:30;;;;;;;9.73;8.48;;;;;;;10.08;100.00;100247.69;5061641;28;20046;-75
2022/04/28 03:59:02;;;;;;;9.35;8.25;;;;;;;10.07;100.00;100240.72;5060708;28;20107;-75
2022/04/28 04:01:32;;;;;;;9.68;8.75;;;;;;;10.06;100.00;100249.63;5093985;28;20068;-75
2022/04/28 04:04:07;;;;;;;9.27;8.48;;;;;;;9.97;100.00;100239.78;5061608;28;20040;-76
2022/04/28 04:06:36;;;;;;;11.00;8.90;;;;;;;9.96;100.00;100248.66;5059194;28;20118;-75
2022/04/28 04:09:23;;;;;;;9.35;8.43;;;;;;;9.99;100.00;100248.44;5061280;28;20127;-75
2022/04/28 04:11:49;;;;;;;8.55;7.78;;;;;;;9.95;100.00;100241.75;5058846;28;20120;-75
2022/04/28 04:14:15;;;;;;;13.88;9.10;;;;;;;9.89;100.00;100247.50;5062278;28;20594;-76
2022/04/28 04:16:41;;;;;;;9.75;8.40;;;;;;;9.89;100.00;100252.78;5058626;28;20045;-75
2022/04/28 04:19:11;;;;;;;9.90;8.82;;;;;;;9.91;100.00;100250.84;5062397;28;20048;-75
2022/04/28 04:21:39;;;;;;;10.18;9.10;;;;;;;9.90;100.00;100257.06;5060901;28;20119;-75
2022/04/28 04:24:06;;;;;;;8.57;7.82;;;;;;;9.87;100.00;100252.03;5060561;28;20115;-75
2022/04/28 04:26:34;;;;;;;10.20;8.50;;;;;;;9.89;100.00;100257.19;5061107;28;20060;-73
2022/04/28 04:29:01;;;;;;;10.65;9.00;;;;;;;9.93;100.00;100261.25;5059933;28;20120;-75
2022/04/28 04:34:54;;;;;;;10.90;9.70;;;;;;;10.01;100.00;100266.78;5057624;28;20041;-75
2022/04/28 04:37:28;;;;;;;12.80;8.90;;;;;;;9.96;100.00;100280.31;5058843;28;20036;-75
2022/04/28 04:39:54;;;;;;;10.98;8.77;;;;;;;9.92;100.00;100280.66;5060059;28;20119;-75
2022/04/28 04:42:19;;;;;;;10.90;8.90;;;;;;;9.94;100.00;100276.13;5058285;28;20179;-75
2022/04/28 04:44:45;;;;;;;15.23;9.65;;;;;;;10.00;100.00;100276.47;5061605;28;20499;-75
2022/04/28 04:47:17;;;;;;;11.05;8.63;;;;;;;10.05;100.00;100284.88;5061049;28;20021;-75
2022/04/28 04:50:15;;;;;;;10.73;9.75;;;;;;;10.08;100.00;100289.88;5053648;28;20430;-74
2022/04/28 04:52:58;;;;;;;10.48;8.75;;;;;;;10.13;100.00;100292.97;5061126;28;20029;-75
2022/04/28 04:55:25;;;;;;;10.77;9.77;;;;;;;10.17;100.00;100297.09;5059185;28;20058;-75
2022/04/28 04:58:03;;;;;;;9.90;8.27;;;;;;;10.23;100.00;100299.25;5059931;28;20025;-74
2022/04/28 05:00:29;;;;;;;11.57;9.45;;;;;;;10.31;100.00;100303.09;5062564;28;20033;-74
2022/04/28 05:03:13;;;;;;;11.13;9.60;;;;;;;10.36;100.00;100311.47;5058843;28;20381;-75
2022/04/28 05:06:08;;;;;;;10.15;9.15;;;;;;;10.36;100.00;100308.84;5014897;28;20181;-76
2022/04/28 05:08:52;;;;;;;11.07;8.75;;;;;;;10.35;100.00;100312.44;5056862;28;20459;-74
2022/04/28 05:11:18;;;;;;;10.63;9.00;;;;;;;10.37;100.00;100315.78;5041705;28;20040;-74
2022/04/28 05:14:04;;;;;;;11.52;9.15;;;;;;;10.40;100.00;100312.88;5049487;28;20476;-75
2022/04/28 05:16:29;;;;;;;12.45;9.60;;;;;;;10.42;100.00;100318.88;5059637;28;20086;-75
2022/04/28 05:19:08;;;;;;;11.32;9.85;;;;;;;10.44;100.00;100322.22;5060822;28;20118;-76
2022/04/28 05:21:49;;;;;;;9.48;8.57;;;;;;;10.44;100.00;100323.06;5059146;28;20045;-72
2022/04/28 05:24:53;;;;;;;10.35;9.32;;;;;;;10.46;100.00;100325.59;5005953;28;20042;-72
2022/04/28 05:27:36;;;;;;;10.68;9.23;;;;;;;10.42;100.00;100329.44;5008409;28;20107;-71
2022/04/28 05:30:21;;;;;;;10.25;9.23;;;;;;;10.48;100.00;100334.22;5009065;28;20041;-72
2022/04/28 05:32:59;;;;;;;11.48;9.68;;;;;;;10.50;100.00;100337.56;5016459;28;20033;-73
2022/04/28 05:35:54;;;;;;;11.88;10.38;;;;;;;10.57;100.00;100339.59;5017246;28;20292;-73
2022/04/28 05:38:20;;;;;;;12.27;10.02;;;;;;;10.67;100.00;100335.25;4991980;28;20130;-73
2022/04/28 05:40:49;;;;;;;11.55;10.35;;;;;;;10.79;100.00;100335.19;5007935;28;20121;-76
2022/04/28 05:45:58;;;;;;;17.70;9.80;;;;;;;11.03;100.00;100347.25;5013513;28;20037;-77
2022/04/28 05:48:24;;;;;;;12.63;11.25;;;;;;;11.17;100.00;100347.91;5005191;28;20053;-75
2022/04/28 05:50:57;;;;;;;13.43;11.45;;;;;;;11.29;100.00;100344.25;4988909;28;20042;-75
2022/04/28 05:53:25;;;;;;;12.15;10.70;;;;;;;11.44;100.00;100346.44;4988490;28;20049;-76
2022/04/28 05:55:57;;;;;;;13.73;11.57;;;;;;;11.54;100.00;100341.22;5056204;28;20032;-74
2022/04/28 05:58:28;;;;;;;12.35;11.13;;;;;;;11.66;100.00;100356.06;4359939;28;10000742;-74
2022/04/28 06:01:14;;;;;;;13.48;11.85;;;;;;;11.83;100.00;100355.47;5059710;28;20040;-74
2022/04/28 06:03:41;;;;;;;13.23;11.15;;;;;;;11.92;100.00;100355.66;5056365;28;20043;-75
2022/04/28 06:06:14;;;;;;;13.23;11.77;;;;;;;12.02;100.00;100356.53;5058318;28;20025;-75
2022/04/28 06:08:40;;;;;;;12.90;11.23;;;;;;;12.20;100.00;100357.56;5059756;28;20522;-75
2022/04/28 06:11:06;;;;;;;16.33;12.00;;;;;;;12.33;100.00;100368.78;5056827;28;20021;-74
2022/04/28 06:13:32;;;;;;;14.73;12.00;;;;;;;12.46;100.00;100368.53;5058622;28;20541;-74
2022/04/28 06:16:23;;;;;;;12.80;11.50;;;;;;;12.55;100.00;100360.59;5058847;28;20045;-75
2022/04/28 06:19:13;;;;;;;17.23;12.43;;;;;;;12.65;100.00;100366.78;5055902;28;20473;-75
2022/04/28 06:21:59;;;;;;;14.77;11.90;;;;;;;12.85;100.00;100367.63;5059116;28;20048;-75
2022/04/28 06:24:25;;;;;;;16.70;13.13;;;;;;;13.02;100.00;100366.13;5058820;28;20404;-75
2022/04/28 06:26:52;;;;;;;14.95;12.30;;;;;;;13.19;99.12;100365.47;5056415;28;20024;-76
2022/04/28 06:29:17;;;;;;;14.15;12.32;;;;;;;13.31;97.44;100374.13;5059508;28;20032;-75
2022/04/28 06:31:43;;;;;;;19.05;12.48;;;;;;;13.45;96.10;100369.22;5055883;28;20083;-75
2022/04/28 06:34:27;;;;;;;15.52;12.60;;;;;;;13.61;94.84;100365.97;5058919;28;20446;-74
2022/04/28 06:36:52;;;;;;;14.80;11.77;;;;;;;13.76;94.97;100369.03;5039995;28;20119;-75
2022/04/28 06:39:18;;;;;;;16.15;12.77;;;;;;;13.87;94.46;100371.50;5059691;28;20033;-76
2022/04/28 06:41:45;;;;;;;13.65;12.13;;;;;;;14.00;94.34;100377.34;5038994;28;20396;-76
2022/04/28 06:44:30;;;;;;;17.52;12.68;;;;;;;14.15;93.47;100381.19;5059300;28;20116;-75
2022/04/28 06:47:25;;;;;;;15.75;11.40;;;;;;;14.28;90.85;100384.34;5057326;28;20057;-75
2022/04/28 06:50:09;;;;;;;15.50;11.98;;;;;;;14.35;89.34;100393.41;5058044;28;20055;-75
2022/04/28 06:52:53;;;;;;;14.35;11.50;;;;;;;14.53;88.43;100387.34;5057990;28;20032;-74
2022/04/28 06:55:32;;;;;;;10.52;9.45;;;;;;;14.64;86.69;100387.97;5058126;28;20067;-76
2022/04/28 06:57:58;;;;;;;11.50;10.38;;;;;;;14.72;84.24;100395.22;5056886;28;20029;-75
2022/04/28 07:00:32;;;;;;;11.30;10.18;;;;;;;14.80;83.86;100392.63;5057224;28;20339;-74
2022/04/28 07:02:57;;;;;;;11.38;9.68;;;;;;;14.78;83.35;100397.28;5056839;28;20037;-75
2022/04/28 07:05:27;;;;;;;12.02;9.73;;;;;;;14.88;83.14;100399.88;5059621;28;20453;-75
2022/04/28 07:07:53;;;;;;;15.27;10.48;;;;;;;15.01;82.86;100395.88;5058401;28;20123;-75
2022/04/28 07:10:26;;;;;;;14.00;10.40;;;;;;;15.08;82.56;100399.56;5045913;28;20025;-73
2022/04/28 07:12:52;;;;;;;13.32;10.27;;;;;;;15.24;82.16;100392.75;5061811;28;20468;-75
2022/04/28 07:15:50;;;;;;;12.88;11.00;;;;;;;15.35;81.92;100400.50;5033962;28;20036;-75
2022/04/28 07:18:37;;;;;;;11.60;10.20;;;;;;;15.49;81.52;100399.97;5062466;28;20032;-76
2022/04/28 07:21:04;;;;;;;10.82;9.68;;;;;;;15.51;80.36;100397.97;5045930;28;20043;-76
2022/04/28 07:23:30;;;;;;;12.38;10.07;;;;;;;15.70;80.27;100407.63;5061577;28;20055;-75
2022/04/28 07:25:55;;;;;;;15.10;10.85;;;;;;;15.71;78.76;100404.81;5061626;28;20024;-75
2022/04/28 07:28:21;;;;;;;11.07;9.48;;;;;;;15.73;79.23;100408.13;5061418;28;20117;-75
2022/04/28 07:31:03;;;;;;;10.25;9.20;;;;;;;15.85;80.23;100401.56;5062344;28;20047;-75
2022/04/28 07:33:57;;;;;;;12.20;10.30;;;;;;;15.97;79.32;100404.81;5062227;28;20080;-75
2022/04/28 07:36:43;;;;;;;10.95;9.68;;;;;;;16.06;78.13;100408.38;5046558;28;20060;-75
2022/04/28 07:39:32;;;;;;;11.05;9.35;;;;;;;16.15;77.71;100404.75;5062631;28;20041;-74
2022/04/28 07:42:03;;;;;;;9.95;8.80;;;;;;;16.18;76.99;100407.13;5062139;28;20131;-74
2022/04/28 07:44:29;;;;;;;11.05;9.43;;;;;;;16.12;76.03;100408.59;5060683;28;20032;-74
2022/04/28 07:46:56;;;;;;;9.95;8.88;;;;;;;16.17;76.35;100405.44;5060917;28;20463;-74
2022/04/28 07:49:25;;;;;;;15.37;9.40;;;;;;;16.30;76.35;100413.84;5062975;28;20456;-74
2022/04/28 07:51:50;;;;;;;9.57;8.40;;;;;;;16.24;72.99;100417.13;5061830;28;20325;-74
2022/04/28 07:54:16;;;;;;;9.55;8.45;;;;;;;16.28;72.13;100415.81;5059451;28;20104;-75
2022/04/28 07:56:45;;;;;;;9.60;8.60;;;;;;;16.31;72.23;100408.38;5096269;28;20372;-76
2022/04/28 07:59:11;;;;;;;9.48;8.48;;;;;;;16.44;72.44;100418.56;5092814;28;20033;-75
2022/04/28 08:01:54;;;;;;;11.70;9.35;;;;;;;16.38;71.78;100419.19;5054936;28;20126;-74
2022/04/28 08:04:20;;;;;;;9.27;8.38;;;;;;;16.44;72.17;100423.88;5085151;22;20441;-74
2022/04/28 08:06:55;;;;;;;9.68;8.77;;;;;;;16.53;71.68;100422.09;5079793;28;20090;-77
2022/04/28 08:09:20;;;;;;;10.13;8.82;;;;;;;16.57;71.01;100426.94;5082678;28;20024;-75
2022/04/28 08:11:46;;;;;;;8.85;7.70;;;;;;;16.67;70.72;100425.00;5061990;28;20091;-75
2022/04/28 08:14:11;;;;;;;12.15;8.13;;;;;;;16.58;69.14;100425.97;5083912;28;20028;-75
2022/04/28 08:16:38;;;;;;;10.43;8.32;;;;;;;16.58;68.91;100428.63;5078958;28;20033;-75
2022/04/28 08:19:45;;;;;;;10.07;8.93;;;;;;;16.59;69.26;100419.66;5080310;28;20432;-76
2022/04/28 08:22:12;;;;;;;9.30;7.80;;;;;;;16.73;69.87;100431.53;5094592;28;20037;-74
2022/04/28 08:24:40;;;;;;;8.32;7.55;;;;;;;16.81;68.16;100431.56;5081554;28;20060;-75
2022/04/28 08:27:05;;;;;;;7.90;7.07;;;;;;;16.76;67.52;100424.06;5079240;28;20038;-76
2022/04/28 08:29:31;;;;;;;8.23;7.15;;;;;;;16.92;67.33;100433.09;5062492;28;20032;-75
2022/04/28 08:32:04;;;;;;;11.75;7.35;;;;;;;17.02;66.72;100433.81;5078967;28;20028;-75
2022/04/28 08:34:31;;;;;;;8.73;7.40;;;;;;;17.11;65.46;100433.66;5079931;28;20502;-75
2022/04/28 08:36:56;;;;;;;7.60;6.80;;;;;;;17.18;64.49;100433.84;5080232;28;20032;-76
2022/04/28 08:39:25;;;;;;;7.82;6.47;;;;;;;17.24;65.29;100438.53;5079477;28;20078;-75
2022/04/28 08:41:53;;;;;;;7.85;7.15;;;;;;;17.23;63.29;100436.84;5080913;28;20036;-78
2022/04/28 08:44:23;;;;;;;7.70;6.72;;;;;;;17.18;62.47;100439.19;5080379;28;20078;-74
2022/04/28 08:47:10;;;;;;;10.55;6.60;;;;;;;17.11;63.31;100438.16;5055763;28;20040;-75
2022/04/28 08:49:42;;;;;;;7.93;6.38;;;;;;;17.13;63.73;100430.84;5082659;28;20036;-75
2022/04/28 08:52:29;;;;;;;8.18;6.18;;;;;;;17.16;63.97;100435.81;5077802;28;20032;-74
2022/04/28 08:55:04;;;;;;;8.10;7.30;;;;;;;17.24;63.78;100430.53;5079181;28;20480;-75
2022/04/28 08:57:33;;;;;;;7.03;6.32;;;;;;;17.32;63.36;100435.84;5080136;28;20110;-76
2022/04/28 09:00:00;;;;;;;7.00;5.47;;;;;;;17.38;60.70;100440.53;5079527;28;20114;-76
2022/04/28 09:02:33;;;;;;;6.50;5.90;;;;;;;17.45;60.15;100440.69;5079258;28;20373;-75
2022/04/28 09:05:19;;;;;;;6.22;5.60;;;;;;;17.48;60.05;100435.88;5064259;28;20048;-75
2022/04/28 09:08:05;;;;;;;7.00;6.30;;;;;;;17.54;60.68;100429.88;5080312;28;20471;-76
2022/04/28 09:10:49;;;;;;;7.45;6.72;;;;;;;17.59;61.60;100424.88;5076600;28;20131;-75
2022/04/28 09:16:24;;;;;;;7.57;5.68;;;;;;;17.78;58.78;100426.41;5075252;28;20041;-76
2022/04/28 09:18:54;;;;;;;8.77;4.47;;;;;;;17.74;56.02;100429.56;5080404;28;20032;-76
2022/04/28 09:21:20;;;;;;;5.03;3.80;;;;;;;17.87;55.58;100429.88;5077441;28;20071;-76
2022/04/28 09:23:50;;;;;;;3.00;2.80;;;;;;;17.92;47.69;100427.53;5077464;28;20483;-75
2022/04/28 09:26:15;;;;;;;3.53;2.67;;;;;;;18.01;49.14;100426.56;5074133;28;20040;-76
2022/04/28 09:28:41;;;;;;;4.18;3.78;;;;;;;17.99;48.64;100423.19;5082192;28;20032;-76
2022/04/28 09:31:09;;;;;;;14.68;8.10;;;;;;;18.02;49.26;100429.03;5078043;28;20421;-75
2022/04/28 09:33:55;;;;;;;24.17;6.15;;;;;;;18.08;50.16;100422.19;5057114;28;20075;-76
2022/04/28 09:36:42;;;;;;;5.05;3.63;;;;;;;18.12;50.04;100420.84;5067017;28;20123;-76
2022/04/28 09:42:31;;;;;;;3.30;3.00;;;;;;;18.28;48.45;100418.13;5079004;28;20037;-76
2022/04/28 09:44:59;;;;;;;3.40;3.10;;;;;;;18.29;47.73;100414.47;5060515;28;20393;-76
2022/04/28 09:47:26;;;;;;;5.10;3.50;;;;;;;18.35;49.05;100419.13;5079942;28;20046;-75
2022/04/28 09:49:55;;;;;;;4.45;2.78;;;;;;;18.41;46.66;100415.75;5078024;28;20020;-76
2022/04/28 09:52:26;;;;;;;3.15;2.60;;;;;;;18.51;46.65;100417.38;5079625;28;20040;-76
2022/04/28 09:55:09;;;;;;;4.05;3.22;;;;;;;18.55;46.02;100424.09;5077536;28;20123;-75
2022/04/28 09:57:55;;;;;;;4.20;2.90;;;;;;;18.56;45.15;100421.22;5076394;28;20067;-75
2022/04/28 10:00:21;;;;;;;3.22;2.92;;;;;;;18.55;44.01;100408.91;5079742;28;20028;-76
2022/04/28 10:02:55;;;;;;;4.20;3.05;;;;;;;18.59;45.58;100412.03;5079008;28;20031;-75
2022/04/28 10:05:25;;;;;;;4.22;3.20;;;;;;;18.58;44.60;100407.69;5079145;28;20032;-75
2022/04/28 10:07:57;;;;;;;2.85;2.60;;;;;;;18.61;44.78;100408.22;5077007;28;20043;-75
2022/04/28 10:10:26;;;;;;;3.42;2.70;;;;;;;18.60;42.23;100403.88;5079359;28;20032;-76
2022/04/28 10:12:54;;;;;;;2.97;2.75;;;;;;;18.57;43.00;100400.69;5057629;28;20037;-75
2022/04/28 10:15:32;;;;;;;4.32;3.20;;;;;;;18.64;44.80;100407.00;5078527;28;20131;-76
2022/04/28 10:18:09;;;;;;;3.55;3.20;;;;;;;18.63;45.18;100400.81;5059782;28;20388;-75
2022/04/28 10:20:42;;;;;;;3.05;2.80;;;;;;;18.71;44.79;100402.63;5076970;28;20043;-76
2022/04/28 10:23:11;;;;;;;3.03;2.78;;;;;;;18.76;43.72;100395.75;5079008;28;20371;-75
2022/04/28 10:35:04;;;;;;;1.83;1.73;;;;;;;18.89;39.11;100389.84;5078485;28;20480;-75
2022/04/28 10:37:40;;;;;;;2.75;2.47;;;;;;;18.86;40.37;100392.00;5077716;28;20032;-74
2022/04/28 10:40:11;;;;;;;4.80;2.60;;;;;;;18.79;41.58;100381.22;5078386;28;20028;-74
2022/04/28 10:42:37;;;;;;;3.25;2.50;;;;;;;18.74;41.55;100391.56;5079604;28;20736;-77
2022/04/28 10:45:12;;;;;;;2.60;2.40;;;;;;;18.80;42.02;100382.84;5078193;28;20111;-77
2022/04/28 10:47:40;;;;;;;4.60;2.90;;;;;;;18.88;41.75;100381.97;5080324;28;20046;-73
2022/04/28 10:50:25;;;;;;;2.28;2.00;;;;;;;18.92;41.21;100384.13;5077957;28;20024;-75
2022/04/28 10:52:55;;;;;;;3.58;2.33;;;;;;;19.02;40.96;100376.72;5074085;28;20108;-75
2022/04/28 10:55:23;;;;;;;2.00;1.85;;;;;;;19.10;41.35;100376.66;5080416;28;20040;-76
2022/04/28 10:57:49;;;;;;;2.30;2.10;;;;;;;19.17;39.80;100377.63;5077449;28;20066;-76
2022/04/28 11:00:33;;;;;;;2.80;1.70;;;;;;;19.19;38.30;100375.59;5081098;28;20032;-75
2022/04/28 11:02:59;;;;;;;2.55;1.70;;;;;;;19.20;39.03;100377.25;5078454;28;20365;-75
2022/04/28 11:05:27;;;;;;;1.85;1.75;;;;;;;19.20;38.14;100371.88;5078963;28;20036;-75
2022/04/28 11:07:53;;;;;;;1.90;1.80;;;;;;;19.18;38.11;100365.91;5077484;28;20082;-75
2022/04/28 11:10:19;;;;;;;3.17;2.38;;;;;;;19.17;38.36;100369.59;5079193;28;20036;-75
2022/04/28 11:12:44;;;;;;;1.88;1.77;;;;;;;19.17;36.63;100361.56;5077109;28;20108;-76
2022/04/28 11:15:14;;;;;;;2.08;1.88;;;;;;;19.25;37.87;100363.34;5080634;28;20028;-74
2022/04/28 11:17:44;;;;;;;2.20;2.00;;;;;;;19.38;39.00;100362.75;5076467;28;20033;-74
2022/04/28 11:20:13;;;;;;;2.25;1.90;;;;;;;19.33;36.78;100354.41;5069396;28;20032;-77
2022/04/28 11:22:54;;;;;;;1.80;1.70;;;;;;;19.35;37.75;100347.88;5057967;28;20028;-75
2022/04/28 11:25:22;;;;;;;1.98;1.65;;;;;;;19.47;37.48;100350.97;5070930;28;20060;-78
2022/04/28 11:27:50;;;;;;;1.55;1.30;;;;;;;19.74;37.42;100347.69;5074403;28;20395;-77
2022/04/28 11:30:19;;;;;;;2.25;2.10;;;;;;;19.87;35.43;100352.44;5075200;28;20035;-77
2022/04/28 11:32:50;;;;;;;1.80;1.70;;;;;;;19.90;35.47;100342.19;5074015;28;20044;-76
2022/04/28 11:35:15;;;;;;;;;;;;;;;19.99;34.33;100346.44;5069126;28;20040;-75
2022/04/28 11:37:41;;;;;;;2.20;2.00;;;;;;;20.06;35.47;100341.19;5075191;28;19915;-76
2022/04/28 11:40:12;;;;;;;1.50;1.40;;;;;;;20.12;34.87;100334.25;5076657;28;20040;-75
2022/04/28 11:42:39;;;;;;;2.00;1.83;;;;;;;20.23;35.12;100336.47;5075565;28;20407;-77
2022/04/28 11:45:06;;;;;;;2.80;1.88;;;;;;;20.48;35.61;100334.34;5073254;28;20036;-74
2022/04/28 11:47:41;;;;;;;3.33;2.38;;;;;;;20.65;35.70;100335.78;5067496;28;20464;-74
2022/04/28 11:50:07;;;;;;;1.95;1.85;;;;;;;20.81;35.06;100339.06;5070654;28;20049;-73
2022/04/28 11:52:34;;;;;;;6.05;2.20;;;;;;;20.91;35.74;100335.25;5069851;28;20500;-72
2022/04/28 11:55:08;;;;;;;4.93;2.58;;;;;;;20.92;35.58;100336.88;5067552;28;20377;-74
2022/04/28 11:57:39;;;;;;;2.60;2.40;;;;;;;21.18;35.30;100326.44;5073539;28;20047;-75
2022/04/28 12:00:13;;;;;;;2.42;2.17;;;;;;;21.44;35.79;100320.50;5072673;28;20102;-72
2022/04/28 12:02:39;;;;;;;2.28;2.00;;;;;;;21.77;34.92;100320.72;5083305;28;20071;-74
2022/04/28 12:05:19;;;;;;;2.97;2.67;;;;;;;22.07;34.53;100321.34;5080022;28;20036;-75
2022/04/28 12:07:52;;;;;;;2.45;2.25;;;;;;;22.72;33.04;100323.50;5082082;28;20037;-75
2022/04/28 12:16:00;;;;;;;5.15;2.70;;;;;;;30.19;22.29;100309.25;5078845;28;20416;-73